sensor_id;sensor_type;location;lat;lon;timestamp;P1;durP1;ratioP1;P2;durP2;ratioP2
23317;SDS011;11831;55.918;37.746;2024-02-23T00:00:42;32.80;;;20.30;;
23317;SDS011;11831;55.918;37.746;2024-02-23T00:03:08;31.02;;;20.00;;
23317;SDS011;11831;55.918;37.746;2024-02-23T00:05:36;34.55;;;20.00;;
23317;SDS011;11831;55.918;37.746;2024-02-23T00:08:02;31.35;;;20.17;;
23317;SDS011;11831;55.918;37.746;2024-02-23T00:10:28;31.77;;;20.58;;
23317;SDS011;11831;55.918;37.746;2024-02-23T00:12:54;28.10;;;18.77;;
23317;SDS011;11831;55.918;37.746;2024-02-23T00:15:21;30.12;;;19.77;;
23317;SDS011;11831;55.918;37.746;2024-02-23T00:17:47;28.70;;;19.42;;
23317;SDS011;11831;55.918;37.746;2024-02-23T00:20:13;31.37;;;20.00;;
23317;SDS011;11831;55.918;37.746;2024-02-23T00:22:40;28.55;;;18.83;;
23317;SDS011;11831;55.918;37.746;2024-02-23T00:25:06;28.62;;;18.87;;
23317;SDS011;11831;55.918;37.746;2024-02-23T00:27:33;29.90;;;19.62;;
23317;SDS011;11831;55.918;37.746;2024-02-23T00:29:59;27.25;;;17.73;;
23317;SDS011;11831;55.918;37.746;2024-02-23T00:32:26;28.45;;;18.70;;
23317;SDS011;11831;55.918;37.746;2024-02-23T00:34:52;28.58;;;17.27;;
23317;SDS011;11831;55.918;37.746;2024-02-23T00:37:18;29.10;;;18.83;;
23317;SDS011;11831;55.918;37.746;2024-02-23T00:39:43;28.90;;;17.77;;
23317;SDS011;11831;55.918;37.746;2024-02-23T00:42:09;25.70;;;17.48;;
23317;SDS011;11831;55.918;37.746;2024-02-23T00:44:35;25.88;;;17.05;;
23317;SDS011;11831;55.918;37.746;2024-02-23T00:47:02;30.05;;;18.27;;
23317;SDS011;11831;55.918;37.746;2024-02-23T00:49:30;25.95;;;16.33;;
23317;SDS011;11831;55.918;37.746;2024-02-23T00:51:56;26.02;;;17.05;;
23317;SDS011;11831;55.918;37.746;2024-02-23T00:54:22;26.77;;;16.83;;
23317;SDS011;11831;55.918;37.746;2024-02-23T00:56:48;28.85;;;17.48;;
23317;SDS011;11831;55.918;37.746;2024-02-23T00:59:15;28.15;;;16.80;;
23317;SDS011;11831;55.918;37.746;2024-02-23T01:01:41;26.35;;;16.73;;
23317;SDS011;11831;55.918;37.746;2024-02-23T01:04:07;26.95;;;17.45;;
23317;SDS011;11831;55.918;37.746;2024-02-23T01:06:32;26.52;;;17.45;;
23317;SDS011;11831;55.918;37.746;2024-02-23T01:08:58;22.98;;;15.98;;
23317;SDS011;11831;55.918;37.746;2024-02-23T01:11:24;26.67;;;17.45;;
23317;SDS011;11831;55.918;37.746;2024-02-23T01:13:50;26.42;;;17.70;;
23317;SDS011;11831;55.918;37.746;2024-02-23T01:16:16;28.77;;;18.08;;
23317;SDS011;11831;55.918;37.746;2024-02-23T01:18:42;26.37;;;17.20;;
23317;SDS011;11831;55.918;37.746;2024-02-23T01:21:08;25.88;;;16.95;;
23317;SDS011;11831;55.918;37.746;2024-02-23T01:23:34;24.65;;;16.98;;
23317;SDS011;11831;55.918;37.746;2024-02-23T01:26:00;24.77;;;16.62;;
23317;SDS011;11831;55.918;37.746;2024-02-23T01:28:28;27.00;;;16.85;;
23317;SDS011;11831;55.918;37.746;2024-02-23T01:30:54;29.35;;;16.30;;
23317;SDS011;11831;55.918;37.746;2024-02-23T01:33:20;24.70;;;16.85;;
23317;SDS011;11831;55.918;37.746;2024-02-23T01:35:46;25.70;;;16.85;;
23317;SDS011;11831;55.918;37.746;2024-02-23T01:38:12;23.70;;;16.83;;
23317;SDS011;11831;55.918;37.746;2024-02-23T01:40:44;24.37;;;16.00;;
23317;SDS011;11831;55.918;37.746;2024-02-23T01:43:10;25.80;;;16.98;;
23317;SDS011;11831;55.918;37.746;2024-02-23T01:45:36;25.92;;;15.88;;
23317;SDS011;11831;55.918;37.746;2024-02-23T01:48:02;26.65;;;16.90;;
23317;SDS011;11831;55.918;37.746;2024-02-23T01:50:29;26.95;;;16.25;;
23317;SDS011;11831;55.918;37.746;2024-02-23T01:52:57;25.45;;;16.30;;
23317;SDS011;11831;55.918;37.746;2024-02-23T01:55:25;23.17;;;15.88;;
23317;SDS011;11831;55.918;37.746;2024-02-23T01:57:51;24.37;;;16.87;;
23317;SDS011;11831;55.918;37.746;2024-02-23T02:00:18;23.98;;;15.65;;
23317;SDS011;11831;55.918;37.746;2024-02-23T02:02:45;24.77;;;16.60;;
23317;SDS011;11831;55.918;37.746;2024-02-23T02:05:11;27.30;;;16.65;;
23317;SDS011;11831;55.918;37.746;2024-02-23T02:07:37;26.25;;;16.73;;
23317;SDS011;11831;55.918;37.746;2024-02-23T02:10:05;25.98;;;16.25;;
23317;SDS011;11831;55.918;37.746;2024-02-23T02:12:32;28.30;;;16.62;;
23317;SDS011;11831;55.918;37.746;2024-02-23T02:14:58;23.92;;;16.62;;
23317;SDS011;11831;55.918;37.746;2024-02-23T02:19:56;25.23;;;15.85;;
23317;SDS011;11831;55.918;37.746;2024-02-23T02:22:24;26.17;;;16.08;;
23317;SDS011;11831;55.918;37.746;2024-02-23T02:24:51;22.02;;;14.93;;
23317;SDS011;11831;55.918;37.746;2024-02-23T02:27:17;25.48;;;16.33;;
23317;SDS011;11831;55.918;37.746;2024-02-23T02:29:43;26.95;;;17.02;;
23317;SDS011;11831;55.918;37.746;2024-02-23T02:32:09;29.12;;;17.67;;
23317;SDS011;11831;55.918;37.746;2024-02-23T02:34:35;23.38;;;16.12;;
23317;SDS011;11831;55.918;37.746;2024-02-23T02:37:01;25.08;;;16.62;;
23317;SDS011;11831;55.918;37.746;2024-02-23T02:39:27;28.00;;;17.10;;
23317;SDS011;11831;55.918;37.746;2024-02-23T02:41:53;28.70;;;17.73;;
23317;SDS011;11831;55.918;37.746;2024-02-23T02:44:19;29.30;;;18.17;;
23317;SDS011;11831;55.918;37.746;2024-02-23T02:46:46;28.62;;;17.65;;
23317;SDS011;11831;55.918;37.746;2024-02-23T02:49:12;27.33;;;17.50;;
23317;SDS011;11831;55.918;37.746;2024-02-23T02:51:38;27.23;;;17.33;;
23317;SDS011;11831;55.918;37.746;2024-02-23T02:54:04;28.55;;;18.35;;
23317;SDS011;11831;55.918;37.746;2024-02-23T02:56:31;28.02;;;17.48;;
23317;SDS011;11831;55.918;37.746;2024-02-23T02:58:57;28.75;;;17.12;;
23317;SDS011;11831;55.918;37.746;2024-02-23T03:01:23;30.80;;;18.70;;
23317;SDS011;11831;55.918;37.746;2024-02-23T03:03:49;29.37;;;17.80;;
23317;SDS011;11831;55.918;37.746;2024-02-23T03:06:15;28.95;;;18.17;;
23317;SDS011;11831;55.918;37.746;2024-02-23T03:08:42;28.38;;;17.45;;
23317;SDS011;11831;55.918;37.746;2024-02-23T03:11:08;34.63;;;19.15;;
